createdAt,value
2019-02-20T00:01:29.991Z,7.05
2019-02-20T00:06:38.413Z,6.88
2019-02-20T00:11:47.130Z,6.77
2019-02-20T00:16:55.532Z,6.79
2019-02-20T00:22:04.613Z,7.26
2019-02-20T00:27:11.608Z,7.09
2019-02-20T00:32:20.099Z,7.08
2019-02-20T00:37:28.631Z,7.37
2019-02-20T00:42:37.348Z,7.48
2019-02-20T00:47:45.754Z,7.39
2019-02-20T00:52:55.562Z,7.07
2019-02-20T00:58:03.962Z,6.67
2019-02-20T01:03:12.723Z,7.52
2019-02-20T01:08:21.471Z,8.01
2019-02-20T01:13:30.270Z,8.28
2019-02-20T01:18:38.681Z,7.34
2019-02-20T01:23:48.573Z,8.10
2019-02-20T01:28:56.937Z,8.11
2019-02-20T01:34:05.785Z,8.34
2019-02-20T01:39:14.213Z,8.68
2019-02-20T01:44:23.070Z,8.79
2019-02-20T01:49:31.440Z,8.19
2019-02-20T01:54:40.497Z,8.10
2019-02-20T01:59:48.934Z,8.12
2019-02-20T02:04:56.393Z,7.53
2019-02-20T02:10:04.780Z,7.92
2019-02-20T02:15:20.032Z,8.39
2019-02-20T02:20:22.060Z,7.94
2019-02-20T02:25:30.856Z,7.91
2019-02-20T02:30:39.240Z,7.82
2019-02-20T02:35:48.333Z,7.45
2019-02-20T02:40:56.709Z,8.53
2019-02-20T02:46:05.504Z,9.32
2019-02-20T02:51:13.934Z,8.61
2019-02-20T02:56:22.748Z,8.36
2019-02-20T03:01:31.079Z,7.28
2019-02-20T03:06:39.870Z,7.80
2019-02-20T03:11:48.304Z,7.22
2019-02-20T03:16:57.094Z,8.06
2019-02-20T03:22:05.518Z,8.19
2019-02-20T03:27:15.324Z,8.19
2019-02-20T03:32:23.752Z,8.92
2019-02-20T03:37:32.508Z,9.64
2019-02-20T03:42:40.845Z,10.13
2019-02-20T03:47:49.598Z,10.68
2019-02-20T03:52:58.015Z,10.55
2019-02-20T03:58:07.806Z,11.63
2019-02-20T04:03:16.284Z,11.91
2019-02-20T04:08:25.131Z,12.09
2019-02-20T04:13:33.546Z,11.49
2019-02-20T04:18:43.554Z,11.21
2019-02-20T04:24:01.591Z,10.49
2019-02-20T04:29:00.340Z,10.75
2019-02-20T04:34:08.655Z,10.85
2019-02-20T04:39:18.854Z,11.73
2019-02-20T04:44:17.225Z,11.67
2019-02-20T04:49:25.669Z,10.93
2019-02-20T04:54:34.428Z,10.96
2019-02-20T04:59:42.874Z,10.61
2019-02-20T05:04:52.674Z,11.32
2019-02-20T05:10:01.112Z,11.20
2019-02-20T05:15:11.784Z,11.12
2019-02-20T05:20:10.179Z,10.91
2019-02-20T05:25:18.579Z,10.58
2019-02-20T05:30:27.681Z,9.97
2019-02-20T05:35:36.116Z,10.08
2019-02-20T05:40:44.938Z,9.72
2019-02-20T05:45:53.357Z,9.96
2019-02-20T05:51:03.037Z,9.97
2019-02-20T05:56:11.803Z,10.24
2019-02-20T06:01:20.477Z,13.47
2019-02-20T06:06:29.263Z,12.46
2019-02-20T06:11:37.739Z,12.81
2019-02-20T06:16:46.704Z,12.34
2019-02-20T06:21:55.288Z,12.94
2019-02-20T06:27:07.874Z,13.36
2019-02-20T06:32:04.180Z,14.24
2019-02-20T06:37:12.549Z,14.43
2019-02-20T06:42:21.361Z,14.34
2019-02-20T06:47:29.978Z,14.10
2019-02-20T06:52:38.962Z,14.11
2019-02-20T06:57:47.398Z,13.60
2019-02-20T07:02:56.302Z,13.93
2019-02-20T07:08:04.677Z,14.02
2019-02-20T07:13:13.541Z,14.35
2019-02-20T07:18:22.219Z,13.81
2019-02-20T07:23:30.998Z,13.67
2019-02-20T07:28:39.642Z,13.70
2019-02-20T07:34:01.191Z,13.62
2019-02-20T07:38:48.726Z,14.17
2019-02-20T07:43:57.178Z,14.69
2019-02-20T07:49:05.982Z,14.29
2019-02-20T07:54:14.404Z,13.20
2019-02-20T07:59:23.289Z,12.79
2019-02-20T08:04:31.746Z,13.65
2019-02-20T08:09:40.398Z,15.16
2019-02-20T08:14:48.895Z,15.64
2019-02-20T08:19:57.602Z,15.40
2019-02-20T08:25:06.146Z,15.48
2019-02-20T08:30:14.960Z,14.10
2019-02-20T08:35:23.393Z,13.41
2019-02-20T08:40:32.164Z,13.18
2019-02-20T08:45:40.642Z,11.36
2019-02-20T08:50:49.304Z,10.45
2019-02-20T08:55:58.018Z,10.67
2019-02-20T09:01:06.712Z,10.85
2019-02-20T09:06:15.165Z,10.30
2019-02-20T09:11:25.438Z,11.59
2019-02-20T09:16:23.890Z,10.84
2019-02-20T09:21:32.219Z,9.40
2019-02-20T09:26:40.935Z,9.78
2019-02-20T09:31:49.791Z,11.20
2019-02-20T09:36:58.768Z,11.95
2019-02-20T09:42:07.144Z,11.97
2019-02-20T09:47:16.217Z,13.82
2019-02-20T09:52:25.141Z,13.92
2019-02-20T09:57:33.670Z,14.75
2019-02-20T10:02:42.067Z,14.78
2019-02-20T10:07:51.040Z,14.98
2019-02-20T10:12:59.555Z,14.50
2019-02-20T10:18:08.127Z,14.64
2019-02-20T10:23:16.969Z,15.19
2019-02-20T10:28:25.448Z,16.48
2019-02-20T10:33:33.918Z,16.44
2019-02-20T10:38:42.498Z,16.03
2019-02-20T10:43:51.869Z,15.93
2019-02-20T10:49:00.568Z,16.81
2019-02-20T10:54:09.380Z,15.76
2019-02-20T10:59:17.885Z,16.00
2019-02-20T11:04:26.649Z,15.55
2019-02-20T11:09:35.218Z,16.81
2019-02-20T11:14:43.666Z,15.63
2019-02-20T11:19:52.132Z,16.48
2019-02-20T11:25:00.807Z,15.89
2019-02-20T11:30:09.229Z,15.81
2019-02-20T11:35:18.182Z,15.16
2019-02-20T11:40:26.605Z,14.44
2019-02-20T11:45:35.934Z,14.50
2019-02-20T11:50:44.390Z,13.16
2019-02-20T11:55:53.326Z,13.16
2019-02-20T12:01:01.721Z,13.02
2019-02-20T12:06:11.266Z,12.59
2019-02-20T12:11:20.246Z,11.34
2019-02-20T12:16:29.442Z,11.07
2019-02-20T12:21:38.460Z,11.47
2019-02-20T12:26:47.884Z,9.64
2019-02-20T12:31:56.336Z,11.21
2019-02-20T12:37:05.764Z,10.99
2019-02-20T12:47:18.499Z,11.35
2019-02-20T12:52:27.632Z,10.05
2019-02-20T12:57:36.964Z,10.58
2019-02-20T13:02:46.987Z,10.14
2019-02-20T13:07:56.255Z,11.16
2019-02-20T13:13:05.307Z,11.60
2019-02-20T13:18:13.969Z,12.29
2019-02-20T13:23:23.082Z,11.56
2019-02-20T13:28:32.613Z,12.19
2019-02-20T13:33:41.719Z,11.86
2019-02-20T13:38:50.987Z,12.48
2019-02-20T13:43:59.981Z,13.40
2019-02-20T13:49:09.116Z,12.67
2019-02-20T13:54:18.041Z,10.61
2019-02-20T13:59:27.066Z,11.76
2019-02-20T14:04:36.044Z,11.43
2019-02-20T14:09:45.059Z,11.14
2019-02-20T14:14:54.040Z,10.63
2019-02-20T14:20:04.290Z,10.81
2019-02-20T14:25:03.289Z,10.85
2019-02-20T14:30:12.386Z,10.47
2019-02-20T14:35:21.682Z,10.22
2019-02-20T14:40:29.120Z,10.25
2019-02-20T14:45:38.472Z,9.80
2019-02-20T14:50:47.638Z,9.62
2019-02-20T14:55:57.904Z,8.57
2019-02-20T15:00:56.725Z,7.93
2019-02-20T15:06:05.622Z,7.82
2019-02-20T15:11:14.503Z,7.86
2019-02-20T15:16:23.420Z,7.00
2019-02-20T15:21:32.424Z,6.95
2019-02-20T15:26:41.742Z,6.89
2019-02-20T15:31:50.585Z,7.63
2019-02-20T15:36:59.939Z,7.44
2019-02-20T15:42:08.835Z,7.07
2019-02-20T15:47:18.078Z,7.41
2019-02-20T15:52:26.508Z,6.78
2019-02-20T15:57:38.026Z,6.72
2019-02-20T16:02:50.996Z,6.41
2019-02-20T16:07:50.491Z,6.64
2019-02-20T16:12:59.546Z,6.49
2019-02-20T16:18:08.768Z,6.48
2019-02-20T16:23:17.875Z,7.38
2019-02-20T16:33:30.059Z,9.89
2019-02-20T16:38:38.983Z,8.43
2019-02-20T16:43:48.740Z,9.14
2019-02-20T16:48:56.794Z,7.71
2019-02-20T16:54:07.536Z,7.54
2019-02-20T16:59:07.315Z,7.70
2019-02-20T17:04:16.377Z,8.83
2019-02-20T17:09:25.232Z,8.79
2019-02-20T17:14:34.240Z,8.71
2019-02-20T17:19:43.081Z,8.76
2019-02-20T17:24:52.084Z,10.33
2019-02-20T17:30:01.384Z,9.62
2019-02-20T17:35:10.336Z,10.05
2019-02-20T17:40:19.836Z,9.57
2019-02-20T17:45:28.264Z,9.85
2019-02-20T17:50:37.738Z,9.65
2019-02-20T17:55:46.730Z,9.95
2019-02-20T18:00:55.217Z,9.96
2019-02-20T18:06:03.714Z,9.96
2019-02-20T18:11:12.486Z,10.81
2019-02-20T18:16:20.849Z,12.19
2019-02-20T18:21:30.782Z,12.73
2019-02-20T18:26:39.313Z,11.69
2019-02-20T18:31:48.057Z,11.74
2019-02-20T18:36:56.386Z,11.08
2019-02-20T18:42:05.656Z,11.25
2019-02-20T18:47:14.057Z,10.47
2019-02-20T18:52:22.797Z,10.91
2019-02-20T18:57:31.892Z,10.61
2019-02-20T19:02:41.918Z,10.69
2019-02-20T19:07:44.455Z,10.89
2019-02-20T19:12:44.094Z,12.92
2019-02-20T19:17:51.552Z,13.44
2019-02-20T19:23:02.339Z,11.99
2019-02-20T19:28:00.684Z,11.30
2019-02-20T19:33:11.948Z,12.61
2019-02-20T19:38:11.607Z,14.71
2019-02-20T19:43:27.086Z,16.31
2019-02-20T19:48:28.252Z,14.27
2019-02-20T19:53:37.301Z,15.26
2019-02-20T19:58:54.418Z,13.97
2019-02-20T20:03:54.917Z,16.01
2019-02-20T20:09:03.773Z,15.90
2019-02-20T20:14:13.597Z,12.97
2019-02-20T20:19:22.311Z,13.50
2019-02-20T20:24:32.081Z,11.37
2019-02-20T20:29:40.743Z,12.45
2019-02-20T20:34:49.725Z,12.70
2019-02-20T20:39:58.081Z,13.15
2019-02-20T20:45:07.401Z,12.80
2019-02-20T20:50:15.869Z,13.66
2019-02-20T20:55:26.798Z,12.47
2019-02-20T21:00:32.716Z,12.39
2019-02-20T21:05:41.405Z,13.08
2019-02-20T21:10:49.738Z,15.32
2019-02-20T21:15:58.401Z,14.03
2019-02-20T21:21:06.865Z,15.47
2019-02-20T21:26:15.272Z,13.50
2019-02-20T21:31:23.946Z,12.28
2019-02-20T21:36:32.446Z,12.59
2019-02-20T21:41:41.215Z,12.56
2019-02-20T21:46:50.082Z,14.28
2019-02-20T21:51:59.446Z,13.92
2019-02-20T21:57:08.036Z,13.54
2019-02-20T22:02:17.155Z,14.43
2019-02-20T22:07:25.616Z,13.58
2019-02-20T22:12:36.612Z,13.10
2019-02-20T22:17:42.199Z,13.15
2019-02-20T22:22:51.074Z,13.73
2019-02-20T22:28:00.042Z,13.94
2019-02-20T22:33:14.879Z,13.42
2019-02-20T22:38:15.047Z,13.47
2019-02-20T22:43:21.777Z,13.36
2019-02-20T22:48:30.491Z,13.40
2019-02-20T22:53:38.961Z,13.86
2019-02-20T22:58:50.005Z,13.46
2019-02-20T23:03:56.108Z,14.17
2019-02-20T23:09:05.089Z,14.94
2019-02-20T23:14:13.570Z,15.57
2019-02-20T23:19:22.393Z,15.82
2019-02-20T23:24:30.946Z,15.62
2019-02-20T23:29:39.935Z,15.42
2019-02-20T23:34:48.388Z,15.21
2019-02-20T23:39:58.492Z,15.02
2019-02-20T23:44:56.938Z,13.63
2019-02-20T23:50:05.422Z,14.42
2019-02-20T23:55:14.174Z,13.78
